Muro del Alcoy, Spain
Current Conditions -  °F | °C
As of 9:00 PM on Thursday 29 Jan 2015 (Local Time) from LEAL Reporting Station
Clear Clear  
Wind Chill: 63°   Ceiling: Unl
Heat Index: 63°   Visibility: 6mi
Dew Point: 34°   Wind: 16mph
Humidity: 34%   Direction: 250°WSW
Pressure: 29.74"   Gusts: NA
Location:  38.78°N, 0.44°W
Report Text: LEAL 292000Z 25014KT 220V280 CAVOK 17/01 Q1007 NOSIG
Loading
Personal Weather Stations






























Interactive Weather Map New forecast layout! Learn more

10-Day Weather Forecast

Advertisements
Track Severe Weather on mobile